sensor_id;sensor_type;location;lat;lon;timestamp;pressure;altitude;pressure_sealevel;temperature;humidity
35443;BME280;21561;55.654;37.592;2024-03-23T00:56:19;98370.44;;;1.23;100.00
35443;BME280;21561;55.654;37.592;2024-03-23T00:58:45;98385.78;;;1.23;100.00
35443;BME280;21561;55.654;37.592;2024-03-23T01:01:11;98362.81;;;1.25;100.00
35443;BME280;21561;55.654;37.592;2024-03-23T01:03:37;98368.75;;;1.25;100.00
35443;BME280;21561;55.654;37.592;2024-03-23T01:06:03;98367.03;;;1.21;100.00
35443;BME280;21561;55.654;37.592;2024-03-23T01:08:30;98363.63;;;1.22;100.00
35443;BME280;21561;55.654;37.592;2024-03-23T01:10:56;98352.53;;;1.22;100.00
35443;BME280;21561;55.654;37.592;2024-03-23T01:13:22;98355.09;;;1.22;100.00
35443;BME280;21561;55.654;37.592;2024-03-23T01:15:52;98344.00;;;1.18;100.00
35443;BME280;21561;55.654;37.592;2024-03-23T01:18:18;98341.47;;;1.21;100.00
35443;BME280;21561;55.654;37.592;2024-03-23T01:20:44;98334.63;;;1.20;100.00
35443;BME280;21561;55.654;37.592;2024-03-23T01:23:11;98333.78;;;1.18;100.00
35443;BME280;21561;55.654;37.592;2024-03-23T01:25:37;98335.47;;;1.18;100.00
35443;BME280;21561;55.654;37.592;2024-03-23T01:28:03;98321.00;;;1.18;100.00
35443;BME280;21561;55.654;37.592;2024-03-23T01:30:30;98326.09;;;1.18;100.00
35443;BME280;21561;55.654;37.592;2024-03-23T01:32:56;98330.38;;;1.19;100.00
35443;BME280;21561;55.654;37.592;2024-03-23T01:35:22;98324.44;;;1.22;100.00
35443;BME280;21561;55.654;37.592;2024-03-23T01:37:48;98322.72;;;1.19;100.00
35443;BME280;21561;55.654;37.592;2024-03-23T01:40:16;98321.91;;;1.23;100.00
35443;BME280;21561;55.654;37.592;2024-03-23T01:42:55;98307.47;;;1.30;100.00
35443;BME280;21561;55.654;37.592;2024-03-23T01:45:21;98309.16;;;1.26;100.00
35443;BME280;21561;55.654;37.592;2024-03-23T01:47:47;98309.16;;;1.28;100.00
35443;BME280;21561;55.654;37.592;2024-03-23T01:50:14;98308.31;;;1.29;100.00
35443;BME280;21561;55.654;37.592;2024-03-23T01:52:41;98298.97;;;1.32;100.00
35443;BME280;21561;55.654;37.592;2024-03-23T01:55:07;98294.72;;;1.33;100.00
35443;BME280;21561;55.654;37.592;2024-03-23T01:57:33;98288.72;;;1.31;100.00
35443;BME280;21561;55.654;37.592;2024-03-23T01:59:59;98291.28;;;1.31;100.00
35443;BME280;21561;55.654;37.592;2024-03-23T02:02:25;98278.50;;;1.26;100.00
35443;BME280;21561;55.654;37.592;2024-03-23T02:04:51;98276.75;;;1.25;100.00
35443;BME280;21561;55.654;37.592;2024-03-23T02:07:17;98275.06;;;1.27;100.00
35443;BME280;21561;55.654;37.592;2024-03-23T02:09:45;98275.94;;;1.26;100.00
35443;BME280;21561;55.654;37.592;2024-03-23T02:12:11;98268.22;;;1.23;100.00
35443;BME280;21561;55.654;37.592;2024-03-23T02:14:38;98261.44;;;1.25;100.00
35443;BME280;21561;55.654;37.592;2024-03-23T02:17:04;98256.31;;;1.25;100.00
35443;BME280;21561;55.654;37.592;2024-03-23T02:19:30;98259.72;;;1.24;100.00
35443;BME280;21561;55.654;37.592;2024-03-23T02:21:55;98256.31;;;1.24;100.00
35443;BME280;21561;55.654;37.592;2024-03-23T02:24:21;98252.91;;;1.23;100.00
35443;BME280;21561;55.654;37.592;2024-03-23T02:26:47;98253.75;;;1.21;100.00
35443;BME280;21561;55.654;37.592;2024-03-23T02:29:14;98253.75;;;1.24;100.00
35443;BME280;21561;55.654;37.592;2024-03-23T02:31:40;98241.84;;;1.27;100.00
35443;BME280;21561;55.654;37.592;2024-03-23T02:34:06;98242.75;;;1.29;100.00
35443;BME280;21561;55.654;37.592;2024-03-23T02:36:32;98229.94;;;1.31;100.00
35443;BME280;21561;55.654;37.592;2024-03-23T02:38:58;98231.66;;;1.32;100.00
35443;BME280;21561;55.654;37.592;2024-03-23T02:41:24;98223.16;;;1.31;100.00
35443;BME280;21561;55.654;37.592;2024-03-23T02:43:50;98214.63;;;1.32;100.00
35443;BME280;21561;55.654;37.592;2024-03-23T02:46:16;98208.69;;;1.33;100.00
35443;BME280;21561;55.654;37.592;2024-03-23T02:48:42;98204.47;;;1.39;100.00
35443;BME280;21561;55.654;37.592;2024-03-23T02:51:08;98205.31;;;1.41;100.00
35443;BME280;21561;55.654;37.592;2024-03-23T02:53:34;98200.19;;;1.38;100.00
35443;BME280;21561;55.654;37.592;2024-03-23T02:56:00;98195.94;;;1.41;100.00
35443;BME280;21561;55.654;37.592;2024-03-23T02:58:26;98186.59;;;1.45;100.00
35443;BME280;21561;55.654;37.592;2024-03-23T03:00:52;98193.44;;;1.49;100.00
35443;BME280;21561;55.654;37.592;2024-03-23T03:03:21;98184.09;;;1.54;100.00
35443;BME280;21561;55.654;37.592;2024-03-23T03:05:47;98180.72;;;1.58;100.00
35443;BME280;21561;55.654;37.592;2024-03-23T03:08:13;98173.03;;;1.61;100.00
35443;BME280;21561;55.654;37.592;2024-03-23T03:10:39;98167.94;;;1.61;100.00
35443;BME280;21561;55.654;37.592;2024-03-23T03:13:04;98162.00;;;1.64;100.00
35443;BME280;21561;55.654;37.592;2024-03-23T03:15:30;98165.41;;;1.64;100.00
35443;BME280;21561;55.654;37.592;2024-03-23T03:17:56;98160.28;;;1.66;100.00
35443;BME280;21561;55.654;37.592;2024-03-23T03:20:22;98161.13;;;1.66;100.00
35443;BME280;21561;55.654;37.592;2024-03-23T03:22:49;98164.56;;;1.65;100.00
35443;BME280;21561;55.654;37.592;2024-03-23T03:25:15;98149.22;;;1.65;100.00
35443;BME280;21561;55.654;37.592;2024-03-23T03:27:41;98150.88;;;1.63;100.00
35443;BME280;21561;55.654;37.592;2024-03-23T03:30:07;98150.88;;;1.63;100.00
35443;BME280;21561;55.654;37.592;2024-03-23T03:32:35;98138.97;;;1.62;100.00
35443;BME280;21561;55.654;37.592;2024-03-23T03:35:01;98129.59;;;1.63;100.00
35443;BME280;21561;55.654;37.592;2024-03-23T03:37:33;98127.03;;;1.61;100.00
35443;BME280;21561;55.654;37.592;2024-03-23T03:39:59;98125.31;;;1.60;100.00
35443;BME280;21561;55.654;37.592;2024-03-23T03:42:24;98133.00;;;1.60;100.00
35443;BME280;21561;55.654;37.592;2024-03-23T03:44:50;98124.47;;;1.61;100.00
35443;BME280;21561;55.654;37.592;2024-03-23T03:47:17;98121.91;;;1.61;100.00
35443;BME280;21561;55.654;37.592;2024-03-23T03:49:43;98123.63;;;1.62;100.00
35443;BME280;21561;55.654;37.592;2024-03-23T03:52:09;98113.41;;;1.62;100.00
35443;BME280;21561;55.654;37.592;2024-03-23T03:54:34;98110.84;;;1.62;100.00
35443;BME280;21561;55.654;37.592;2024-03-23T03:57:00;98101.44;;;1.61;100.00
35443;BME280;21561;55.654;37.592;2024-03-23T03:59:27;98089.53;;;1.65;100.00
35443;BME280;21561;55.654;37.592;2024-03-23T04:01:53;98080.16;;;1.64;100.00
35443;BME280;21561;55.654;37.592;2024-03-23T04:04:19;98084.41;;;1.63;100.00
35443;BME280;21561;55.654;37.592;2024-03-23T04:06:46;98084.41;;;1.65;100.00
35443;BME280;21561;55.654;37.592;2024-03-23T04:09:12;98085.28;;;1.62;100.00
35443;BME280;21561;55.654;37.592;2024-03-23T04:11:39;98082.72;;;1.62;100.00
35443;BME280;21561;55.654;37.592;2024-03-23T04:14:05;98078.44;;;1.63;100.00
35443;BME280;21561;55.654;37.592;2024-03-23T04:16:34;98077.63;;;1.65;100.00
35443;BME280;21561;55.654;37.592;2024-03-23T04:19:00;98073.34;;;1.66;100.00
35443;BME280;21561;55.654;37.592;2024-03-23T04:21:26;98073.34;;;1.66;100.00
35443;BME280;21561;55.654;37.592;2024-03-23T04:23:52;98076.78;;;1.68;100.00
35443;BME280;21561;55.654;37.592;2024-03-23T04:26:18;98058.88;;;1.69;100.00
35443;BME280;21561;55.654;37.592;2024-03-23T04:28:44;98064.00;;;1.73;100.00
35443;BME280;21561;55.654;37.592;2024-03-23T04:31:10;98055.44;;;1.70;100.00
35443;BME280;21561;55.654;37.592;2024-03-23T04:33:36;98057.19;;;1.71;100.00
35443;BME280;21561;55.654;37.592;2024-03-23T04:36:02;98054.63;;;1.75;100.00
35443;BME280;21561;55.654;37.592;2024-03-23T04:38:28;98043.53;;;1.77;100.00
35443;BME280;21561;55.654;37.592;2024-03-23T04:40:56;98046.09;;;1.77;100.00
35443;BME280;21561;55.654;37.592;2024-03-23T04:43:22;98032.47;;;1.80;100.00
35443;BME280;21561;55.654;37.592;2024-03-23T04:45:48;98037.59;;;1.83;100.00
35443;BME280;21561;55.654;37.592;2024-03-23T04:48:14;98041.03;;;1.85;100.00
35443;BME280;21561;55.654;37.592;2024-03-23T04:50:40;98042.72;;;1.87;100.00
35443;BME280;21561;55.654;37.592;2024-03-23T04:53:07;98041.88;;;1.87;100.00
35443;BME280;21561;55.654;37.592;2024-03-23T04:55:33;98027.38;;;1.87;100.00
35443;BME280;21561;55.654;37.592;2024-03-23T04:57:59;98018.84;;;1.85;100.00
35443;BME280;21561;55.654;37.592;2024-03-23T05:00:25;98018.00;;;1.88;100.00
35443;BME280;21561;55.654;37.592;2024-03-23T05:02:52;98022.25;;;1.87;100.00
35443;BME280;21561;55.654;37.592;2024-03-23T05:05:19;98015.44;;;1.89;100.00
35443;BME280;21561;55.654;37.592;2024-03-23T05:07:45;98012.88;;;1.91;100.00
35443;BME280;21561;55.654;37.592;2024-03-23T05:10:11;98010.34;;;1.93;100.00
35443;BME280;21561;55.654;37.592;2024-03-23T05:12:37;98004.38;;;1.92;100.00
35443;BME280;21561;55.654;37.592;2024-03-23T05:15:06;98006.94;;;1.90;100.00
35443;BME280;21561;55.654;37.592;2024-03-23T05:17:35;98003.50;;;1.90;100.00
35443;BME280;21561;55.654;37.592;2024-03-23T05:20:03;98006.06;;;1.90;100.00
35443;BME280;21561;55.654;37.592;2024-03-23T05:22:30;98000.09;;;1.89;100.00
35443;BME280;21561;55.654;37.592;2024-03-23T05:24:56;98013.75;;;1.88;100.00
35443;BME280;21561;55.654;37.592;2024-03-23T05:27:22;97997.53;;;1.85;100.00
35443;BME280;21561;55.654;37.592;2024-03-23T05:29:48;98000.09;;;1.85;100.00
35443;BME280;21561;55.654;37.592;2024-03-23T05:32:14;97985.59;;;1.82;100.00
35443;BME280;21561;55.654;37.592;2024-03-23T05:34:40;98000.94;;;1.81;100.00
35443;BME280;21561;55.654;37.592;2024-03-23T05:37:06;97991.56;;;1.80;100.00
35443;BME280;21561;55.654;37.592;2024-03-23T05:39:32;97981.34;;;1.80;100.00
35443;BME280;21561;55.654;37.592;2024-03-23T05:41:58;97983.03;;;1.78;100.00
35443;BME280;21561;55.654;37.592;2024-03-23T05:44:24;97980.47;;;1.78;100.00
35443;BME280;21561;55.654;37.592;2024-03-23T05:46:50;97987.28;;;1.76;100.00
35443;BME280;21561;55.654;37.592;2024-03-23T05:49:16;97973.66;;;1.77;100.00
35443;BME280;21561;55.654;37.592;2024-03-23T05:51:43;97978.75;;;1.74;100.00
35443;BME280;21561;55.654;37.592;2024-03-23T05:54:09;97964.25;;;1.76;100.00
35443;BME280;21561;55.654;37.592;2024-03-23T05:56:36;97974.50;;;1.76;100.00
35443;BME280;21561;55.654;37.592;2024-03-23T05:59:02;97969.38;;;1.76;100.00
35443;BME280;21561;55.654;37.592;2024-03-23T06:01:29;97970.25;;;1.75;100.00
35443;BME280;21561;55.654;37.592;2024-03-23T06:03:58;97955.72;;;1.74;100.00
35443;BME280;21561;55.654;37.592;2024-03-23T06:06:27;97963.41;;;1.70;100.00
35443;BME280;21561;55.654;37.592;2024-03-23T06:08:56;97965.09;;;1.68;100.00
35443;BME280;21561;55.654;37.592;2024-03-23T06:11:22;97957.44;;;1.70;100.00
35443;BME280;21561;55.654;37.592;2024-03-23T06:13:48;97956.59;;;1.69;100.00
35443;BME280;21561;55.654;37.592;2024-03-23T06:16:14;97947.22;;;1.70;100.00
35443;BME280;21561;55.654;37.592;2024-03-23T06:18:39;97960.84;;;1.70;100.00
35443;BME280;21561;55.654;37.592;2024-03-23T06:21:13;97954.88;;;1.71;100.00
35443;BME280;21561;55.654;37.592;2024-03-23T06:23:40;97946.38;;;1.73;100.00
35443;BME280;21561;55.654;37.592;2024-03-23T06:26:06;97946.38;;;1.73;100.00
35443;BME280;21561;55.654;37.592;2024-03-23T06:28:31;97946.38;;;1.73;100.00
35443;BME280;21561;55.654;37.592;2024-03-23T06:30:57;97939.56;;;1.75;100.00
35443;BME280;21561;55.654;37.592;2024-03-23T06:33:23;97939.56;;;1.78;100.00
35443;BME280;21561;55.654;37.592;2024-03-23T06:35:52;97931.91;;;1.78;100.00
35443;BME280;21561;55.654;37.592;2024-03-23T06:38:18;97935.31;;;1.80;100.00
35443;BME280;21561;55.654;37.592;2024-03-23T06:40:44;97948.06;;;1.83;100.00
35443;BME280;21561;55.654;37.592;2024-03-23T06:43:16;97933.59;;;1.79;100.00
35443;BME280;21561;55.654;37.592;2024-03-23T06:45:42;97934.44;;;1.81;100.00
35443;BME280;21561;55.654;37.592;2024-03-23T06:48:08;97925.91;;;1.82;100.00
35443;BME280;21561;55.654;37.592;2024-03-23T06:50:34;97931.88;;;1.84;100.00
35443;BME280;21561;55.654;37.592;2024-03-23T06:53:00;97918.25;;;1.82;100.00
35443;BME280;21561;55.654;37.592;2024-03-23T06:55:28;97908.00;;;1.86;100.00
35443;BME280;21561;55.654;37.592;2024-03-23T06:57:54;97915.66;;;1.88;100.00
35443;BME280;21561;55.654;37.592;2024-03-23T07:00:20;97904.59;;;1.87;100.00
35443;BME280;21561;55.654;37.592;2024-03-23T07:02:45;97905.44;;;1.86;100.00
35443;BME280;21561;55.654;37.592;2024-03-23T07:05:11;97915.66;;;1.88;100.00
35443;BME280;21561;55.654;37.592;2024-03-23T07:07:40;97910.56;;;1.94;100.00
35443;BME280;21561;55.654;37.592;2024-03-23T07:10:07;97902.06;;;1.92;100.00
35443;BME280;21561;55.654;37.592;2024-03-23T07:12:33;97893.50;;;1.93;100.00
35443;BME280;21561;55.654;37.592;2024-03-23T07:14:58;97890.13;;;1.96;100.00
35443;BME280;21561;55.654;37.592;2024-03-23T07:17:24;97886.69;;;1.95;100.00
35443;BME280;21561;55.654;37.592;2024-03-23T07:19:50;97883.28;;;1.96;100.00
35443;BME280;21561;55.654;37.592;2024-03-23T07:22:16;97879.88;;;1.96;100.00
35443;BME280;21561;55.654;37.592;2024-03-23T07:24:43;97893.53;;;1.99;100.00
35443;BME280;21561;55.654;37.592;2024-03-23T07:27:10;97887.53;;;1.99;100.00
35443;BME280;21561;55.654;37.592;2024-03-23T07:29:36;97884.97;;;1.97;100.00
35443;BME280;21561;55.654;37.592;2024-03-23T07:32:02;97878.16;;;1.96;100.00
35443;BME280;21561;55.654;37.592;2024-03-23T07:34:28;97878.16;;;2.01;100.00
35443;BME280;21561;55.654;37.592;2024-03-23T07:36:54;97877.31;;;2.06;100.00
35443;BME280;21561;55.654;37.592;2024-03-23T07:39:20;97884.97;;;2.06;100.00
35443;BME280;21561;55.654;37.592;2024-03-23T07:41:46;97873.88;;;2.07;100.00
35443;BME280;21561;55.654;37.592;2024-03-23T07:44:12;97881.56;;;2.04;100.00
35443;BME280;21561;55.654;37.592;2024-03-23T07:46:38;97870.47;;;2.07;100.00
35443;BME280;21561;55.654;37.592;2024-03-23T07:49:04;97867.91;;;2.08;100.00
35443;BME280;21561;55.654;37.592;2024-03-23T07:51:30;97872.16;;;2.09;100.00
35443;BME280;21561;55.654;37.592;2024-03-23T07:53:56;97869.59;;;2.13;100.00
35443;BME280;21561;55.654;37.592;2024-03-23T07:56:22;97890.91;;;2.13;100.00
35443;BME280;21561;55.654;37.592;2024-03-23T07:58:49;97861.09;;;2.14;100.00
35443;BME280;21561;55.654;37.592;2024-03-23T08:01:16;97869.59;;;2.19;100.00
35443;BME280;21561;55.654;37.592;2024-03-23T08:03:45;97871.28;;;2.17;100.00
35443;BME280;21561;55.654;37.592;2024-03-23T08:06:19;97884.94;;;2.22;100.00
35443;BME280;21561;55.654;37.592;2024-03-23T08:08:51;97864.47;;;2.19;100.00
35443;BME280;21561;55.654;37.592;2024-03-23T08:11:30;97873.03;;;2.21;100.00
35443;BME280;21561;55.654;37.592;2024-03-23T08:13:56;97861.06;;;2.23;100.00
35443;BME280;21561;55.654;37.592;2024-03-23T08:16:23;97867.88;;;2.27;100.00
35443;BME280;21561;55.654;37.592;2024-03-23T08:18:52;97846.53;;;2.29;100.00
35443;BME280;21561;55.654;37.592;2024-03-23T08:21:19;97846.53;;;2.31;100.00
35443;BME280;21561;55.654;37.592;2024-03-23T08:23:45;97854.19;;;2.34;100.00
35443;BME280;21561;55.654;37.592;2024-03-23T08:26:12;97853.34;;;2.34;100.00
35443;BME280;21561;55.654;37.592;2024-03-23T08:28:40;97841.41;;;2.37;100.00
35443;BME280;21561;55.654;37.592;2024-03-23T08:31:08;97850.75;;;2.41;100.00
35443;BME280;21561;55.654;37.592;2024-03-23T08:33:34;97844.81;;;2.41;100.00
35443;BME280;21561;55.654;37.592;2024-03-23T08:36:03;97842.22;;;2.45;100.00
35443;BME280;21561;55.654;37.592;2024-03-23T08:38:29;97833.69;;;2.40;100.00
35443;BME280;21561;55.654;37.592;2024-03-23T08:41:02;97832.81;;;2.49;100.00
35443;BME280;21561;55.654;37.592;2024-03-23T08:43:30;97847.31;;;2.48;100.00
35443;BME280;21561;55.654;37.592;2024-03-23T08:46:09;97837.09;;;2.48;100.00
35443;BME280;21561;55.654;37.592;2024-03-23T08:48:37;97834.53;;;2.45;100.00
35443;BME280;21561;55.654;37.592;2024-03-23T08:51:07;97818.28;;;2.53;100.00
35443;BME280;21561;55.654;37.592;2024-03-23T08:53:35;97816.56;;;2.55;100.00
35443;BME280;21561;55.654;37.592;2024-03-23T08:56:05;97821.69;;;2.55;100.00
35443;BME280;21561;55.654;37.592;2024-03-23T08:58:35;97830.25;;;2.54;100.00
35443;BME280;21561;55.654;37.592;2024-03-23T09:01:07;97829.38;;;2.55;100.00
35443;BME280;21561;55.654;37.592;2024-03-23T09:03:34;97833.63;;;2.59;100.00
35443;BME280;21561;55.654;37.592;2024-03-23T09:06:02;97818.25;;;2.62;100.00
35443;BME280;21561;55.654;37.592;2024-03-23T09:08:32;97799.47;;;2.66;100.00
35443;BME280;21561;55.654;37.592;2024-03-23T09:11:03;97807.09;;;2.69;100.00
35443;BME280;21561;55.654;37.592;2024-03-23T09:13:36;97816.50;;;2.67;100.00
35443;BME280;21561;55.654;37.592;2024-03-23T09:16:04;97794.31;;;2.69;100.00
35443;BME280;21561;55.654;37.592;2024-03-23T09:18:32;97809.66;;;2.69;100.00
35443;BME280;21561;55.654;37.592;2024-03-23T09:20:59;97794.28;;;2.72;100.00
35443;BME280;21561;55.654;37.592;2024-03-23T09:23:25;97807.94;;;2.74;100.00
35443;BME280;21561;55.654;37.592;2024-03-23T09:25:51;97793.41;;;2.76;100.00
35443;BME280;21561;55.654;37.592;2024-03-23T09:28:17;97794.28;;;2.78;100.00
35443;BME280;21561;55.654;37.592;2024-03-23T09:30:43;97794.28;;;2.75;100.00
35443;BME280;21561;55.654;37.592;2024-03-23T09:33:10;97779.75;;;2.77;100.00
35443;BME280;21561;55.654;37.592;2024-03-23T09:35:40;97786.56;;;2.80;100.00
35443;BME280;21561;55.654;37.592;2024-03-23T09:38:06;97778.88;;;2.81;100.00
35443;BME280;21561;55.654;37.592;2024-03-23T09:40:42;97771.13;;;2.91;100.00
35443;BME280;21561;55.654;37.592;2024-03-23T09:43:10;97777.97;;;2.92;100.00
35443;BME280;21561;55.654;37.592;2024-03-23T09:45:40;97785.59;;;2.98;100.00
35443;BME280;21561;55.654;37.592;2024-03-23T09:48:08;97783.06;;;2.96;100.00
35443;BME280;21561;55.654;37.592;2024-03-23T09:50:39;97782.19;;;2.96;100.00
35443;BME280;21561;55.654;37.592;2024-03-23T09:53:10;97792.44;;;2.99;100.00
35443;BME280;21561;55.654;37.592;2024-03-23T09:55:38;97777.88;;;3.02;100.00
35443;BME280;21561;55.654;37.592;2024-03-23T09:58:04;97783.84;;;3.06;100.00
35443;BME280;21561;55.654;37.592;2024-03-23T10:00:35;97781.28;;;3.08;100.00
35443;BME280;21561;55.654;37.592;2024-03-23T10:03:01;97776.97;;;3.10;100.00
35443;BME280;21561;55.654;37.592;2024-03-23T10:05:29;97788.94;;;3.11;100.00
35443;BME280;21561;55.654;37.592;2024-03-23T10:07:57;97767.56;;;3.10;100.00
35443;BME280;21561;55.654;37.592;2024-03-23T10:10:25;97760.69;;;3.17;100.00
35443;BME280;21561;55.654;37.592;2024-03-23T10:12:51;97764.97;;;3.16;100.00
35443;BME280;21561;55.654;37.592;2024-03-23T10:15:22;97758.13;;;3.21;100.00
35443;BME280;21561;55.654;37.592;2024-03-23T10:17:49;97764.06;;;3.23;100.00
35443;BME280;21561;55.654;37.592;2024-03-23T10:20:22;97763.19;;;3.28;100.00
35443;BME280;21561;55.654;37.592;2024-03-23T10:22:49;97760.63;;;3.24;100.00
35443;BME280;21561;55.654;37.592;2024-03-23T10:25:22;97766.56;;;3.30;100.00
35443;BME280;21561;55.654;37.592;2024-03-23T10:27:59;97776.78;;;3.36;100.00
35443;BME280;21561;55.654;37.592;2024-03-23T10:30:26;97741.78;;;3.32;100.00
35443;BME280;21561;55.654;37.592;2024-03-23T10:33:10;97740.84;;;3.40;100.00
35443;BME280;21561;55.654;37.592;2024-03-23T10:35:37;97754.56;;;3.35;100.00
35443;BME280;21561;55.654;37.592;2024-03-23T10:38:05;97751.16;;;3.36;100.00
35443;BME280;21561;55.654;37.592;2024-03-23T10:40:36;97745.97;;;3.40;100.00
35443;BME280;21561;55.654;37.592;2024-03-23T10:43:06;97744.22;;;3.44;100.00
35443;BME280;21561;55.654;37.592;2024-03-23T10:45:34;97740.84;;;3.42;100.00
35443;BME280;21561;55.654;37.592;2024-03-23T10:48:00;97739.97;;;3.43;100.00
35443;BME280;21561;55.654;37.592;2024-03-23T10:50:27;97757.06;;;3.44;100.00
35443;BME280;21561;55.654;37.592;2024-03-23T10:52:53;97739.09;;;3.44;100.00
35443;BME280;21561;55.654;37.592;2024-03-23T10:55:20;97750.19;;;3.48;100.00
35443;BME280;21561;55.654;37.592;2024-03-23T10:57:52;97737.38;;;3.46;100.00
35443;BME280;21561;55.654;37.592;2024-03-23T11:00:19;97740.75;;;3.51;100.00
35443;BME280;21561;55.654;37.592;2024-03-23T11:02:48;97745.88;;;3.51;100.00
35443;BME280;21561;55.654;37.592;2024-03-23T11:07:53;97737.25;;;3.58;100.00
35443;BME280;21561;55.654;37.592;2024-03-23T11:10:30;97738.94;;;3.62;100.00
35443;BME280;21561;55.654;37.592;2024-03-23T11:12:57;97742.38;;;3.61;100.00
35443;BME280;21561;55.654;37.592;2024-03-23T11:15:23;97745.75;;;3.63;100.00
35443;BME280;21561;55.654;37.592;2024-03-23T11:18:06;97726.88;;;3.71;100.00
35443;BME280;21561;55.654;37.592;2024-03-23T11:20:35;97730.31;;;3.70;100.00
35443;BME280;21561;55.654;37.592;2024-03-23T11:23:02;97720.06;;;3.70;100.00
35443;BME280;21561;55.654;37.592;2024-03-23T11:25:29;97720.00;;;3.76;100.00
35443;BME280;21561;55.654;37.592;2024-03-23T11:27:57;97714.81;;;3.80;100.00
35443;BME280;21561;55.654;37.592;2024-03-23T11:30:25;97709.69;;;3.79;100.00
35443;BME280;21561;55.654;37.592;2024-03-23T11:32:56;97726.78;;;3.80;100.00
35443;BME280;21561;55.654;37.592;2024-03-23T11:35:41;97719.91;;;3.82;100.00
35443;BME280;21561;55.654;37.592;2024-03-23T11:38:13;97731.06;;;3.81;100.00
35443;BME280;21561;55.654;37.592;2024-03-23T11:40:43;97719.06;;;3.83;100.00
35443;BME280;21561;55.654;37.592;2024-03-23T11:43:14;97724.22;;;3.78;100.00
35443;BME280;21561;55.654;37.592;2024-03-23T11:45:47;97707.94;;;3.84;100.00
35443;BME280;21561;55.654;37.592;2024-03-23T11:48:15;97726.75;;;3.81;100.00
35443;BME280;21561;55.654;37.592;2024-03-23T11:50:44;97696.03;;;3.77;100.00
35443;BME280;21561;55.654;37.592;2024-03-23T11:55:48;97712.28;;;3.76;100.00
35443;BME280;21561;55.654;37.592;2024-03-23T11:58:15;97732.84;;;3.73;100.00
35443;BME280;21561;55.654;37.592;2024-03-23T12:00:41;97708.91;;;3.71;100.00
35443;BME280;21561;55.654;37.592;2024-03-23T12:03:07;97708.06;;;3.72;100.00
35443;BME280;21561;55.654;37.592;2024-03-23T12:05:34;97704.63;;;3.73;100.00
35443;BME280;21561;55.654;37.592;2024-03-23T12:08:20;97726.84;;;3.74;100.00
35443;BME280;21561;55.654;37.592;2024-03-23T12:10:49;97707.19;;;3.71;100.00
35443;BME280;21561;55.654;37.592;2024-03-23T12:13:17;97701.22;;;3.71;100.00
35443;BME280;21561;55.654;37.592;2024-03-23T12:15:44;97702.06;;;3.71;100.00
35443;BME280;21561;55.654;37.592;2024-03-23T12:18:11;97702.06;;;3.71;100.00
35443;BME280;21561;55.654;37.592;2024-03-23T12:20:38;97710.56;;;3.75;100.00
35443;BME280;21561;55.654;37.592;2024-03-23T12:23:08;97703.75;;;3.75;100.00
35443;BME280;21561;55.654;37.592;2024-03-23T12:25:35;97699.47;;;3.74;100.00
35443;BME280;21561;55.654;37.592;2024-03-23T12:28:02;97701.22;;;3.71;100.00
35443;BME280;21561;55.654;37.592;2024-03-23T12:30:28;97691.03;;;3.66;100.00
35443;BME280;21561;55.654;37.592;2024-03-23T12:32:54;97697.00;;;3.65;100.00
35443;BME280;21561;55.654;37.592;2024-03-23T12:35:20;97689.31;;;3.67;100.00
35443;BME280;21561;55.654;37.592;2024-03-23T12:37:46;97699.56;;;3.67;100.00
35443;BME280;21561;55.654;37.592;2024-03-23T12:40:12;97702.09;;;3.70;100.00
35443;BME280;21561;55.654;37.592;2024-03-23T12:42:38;97696.13;;;3.68;100.00
35443;BME280;21561;55.654;37.592;2024-03-23T12:45:04;97699.56;;;3.67;100.00
35443;BME280;21561;55.654;37.592;2024-03-23T12:47:31;97696.13;;;3.68;100.00
35443;BME280;21561;55.654;37.592;2024-03-23T12:49:56;97709.00;;;3.65;100.00
35443;BME280;21561;55.654;37.592;2024-03-23T12:52:22;97700.44;;;3.64;100.00
35443;BME280;21561;55.654;37.592;2024-03-23T12:54:56;97696.13;;;3.68;100.00
35443;BME280;21561;55.654;37.592;2024-03-23T12:57:26;97700.97;;;3.92;100.00
35443;BME280;21561;55.654;37.592;2024-03-23T12:59:53;97701.78;;;3.97;100.00
35443;BME280;21561;55.654;37.592;2024-03-23T13:02:22;97699.06;;;4.10;100.00
35443;BME280;21561;55.654;37.592;2024-03-23T13:04:51;97691.44;;;4.04;100.00
35443;BME280;21561;55.654;37.592;2024-03-23T13:07:17;97697.31;;;4.15;100.00
35443;BME280;21561;55.654;37.592;2024-03-23T13:09:44;97695.25;;;4.42;100.00
35443;BME280;21561;55.654;37.592;2024-03-23T13:12:10;97700.66;;;4.20;100.00
35443;BME280;21561;55.654;37.592;2024-03-23T13:14:39;97694.91;;;4.01;100.00
35443;BME280;21561;55.654;37.592;2024-03-23T13:17:06;97683.91;;;3.91;100.00
35443;BME280;21561;55.654;37.592;2024-03-23T13:19:33;97694.28;;;3.80;100.00
35443;BME280;21561;55.654;37.592;2024-03-23T13:22:00;97677.09;;;3.87;100.00
35443;BME280;21561;55.654;37.592;2024-03-23T13:24:27;97681.38;;;3.87;100.00
35443;BME280;21561;55.654;37.592;2024-03-23T13:26:54;97693.38;;;3.85;100.00
35443;BME280;21561;55.654;37.592;2024-03-23T13:29:21;97696.81;;;3.82;100.00
35443;BME280;21561;55.654;37.592;2024-03-23T13:31:51;97672.06;;;3.78;100.00
35443;BME280;21561;55.654;37.592;2024-03-23T13:34:20;97675.47;;;3.80;100.00
35443;BME280;21561;55.654;37.592;2024-03-23T13:36:47;97678.91;;;3.79;100.00
35443;BME280;21561;55.654;37.592;2024-03-23T13:39:14;97666.94;;;3.78;100.00
35443;BME280;21561;55.654;37.592;2024-03-23T13:41:42;97670.34;;;3.80;100.00
35443;BME280;21561;55.654;37.592;2024-03-23T13:44:09;97694.22;;;3.85;100.00
35443;BME280;21561;55.654;37.592;2024-03-23T13:46:42;97680.56;;;3.83;100.00
35443;BME280;21561;55.654;37.592;2024-03-23T13:49:38;97679.66;;;3.87;100.00
35443;BME280;21561;55.654;37.592;2024-03-23T13:52:06;97677.91;;;3.91;100.00